sensor_id;sensor_type;location;lat;lon;timestamp;P1;durP1;ratioP1;P2;durP2;ratioP2
54665;SDS011;40566;50.006;36.180;2023-05-19T00:03:50;16.40;;;6.93;;
54665;SDS011;40566;50.006;36.180;2023-05-19T00:08:57;16.60;;;6.22;;
54665;SDS011;40566;50.006;36.180;2023-05-19T00:13:59;14.35;;;6.55;;
54665;SDS011;40566;50.006;36.180;2023-05-19T00:19:00;15.20;;;6.65;;
54665;SDS011;40566;50.006;36.180;2023-05-19T00:24:02;11.70;;;6.00;;
54665;SDS011;40566;50.006;36.180;2023-05-19T00:29:03;11.23;;;6.03;;
54665;SDS011;40566;50.006;36.180;2023-05-19T00:34:04;12.48;;;6.07;;
54665;SDS011;40566;50.006;36.180;2023-05-19T00:39:05;14.50;;;6.53;;
54665;SDS011;40566;50.006;36.180;2023-05-19T00:44:06;14.35;;;6.65;;
54665;SDS011;40566;50.006;36.180;2023-05-19T00:49:07;17.70;;;6.88;;
54665;SDS011;40566;50.006;36.180;2023-05-19T00:54:07;17.67;;;6.50;;
54665;SDS011;40566;50.006;36.180;2023-05-19T00:59:08;13.40;;;6.25;;
54665;SDS011;40566;50.006;36.180;2023-05-19T01:04:09;15.77;;;6.53;;
54665;SDS011;40566;50.006;36.180;2023-05-19T01:09:10;13.10;;;6.35;;
54665;SDS011;40566;50.006;36.180;2023-05-19T01:14:11;12.57;;;6.63;;
54665;SDS011;40566;50.006;36.180;2023-05-19T01:24:33;11.10;;;5.60;;
54665;SDS011;40566;50.006;36.180;2023-05-19T01:35:09;15.30;;;6.30;;
54665;SDS011;40566;50.006;36.180;2023-05-19T01:40:14;12.98;;;6.30;;
54665;SDS011;40566;50.006;36.180;2023-05-19T01:45:15;14.73;;;6.43;;
54665;SDS011;40566;50.006;36.180;2023-05-19T01:50:17;13.32;;;5.68;;
54665;SDS011;40566;50.006;36.180;2023-05-19T01:55:18;15.40;;;5.63;;
54665;SDS011;40566;50.006;36.180;2023-05-19T02:00:30;13.30;;;5.80;;
54665;SDS011;40566;50.006;36.180;2023-05-19T02:05:42;14.73;;;6.80;;
54665;SDS011;40566;50.006;36.180;2023-05-19T02:10:54;11.95;;;6.07;;
54665;SDS011;40566;50.006;36.180;2023-05-19T02:16:15;13.90;;;6.60;;
54665;SDS011;40566;50.006;36.180;2023-05-19T02:21:16;13.55;;;6.15;;
54665;SDS011;40566;50.006;36.180;2023-05-19T02:26:17;13.45;;;5.93;;
54665;SDS011;40566;50.006;36.180;2023-05-19T02:31:17;12.60;;;5.35;;
54665;SDS011;40566;50.006;36.180;2023-05-19T02:36:18;15.52;;;6.00;;
54665;SDS011;40566;50.006;36.180;2023-05-19T02:41:18;13.40;;;5.32;;
54665;SDS011;40566;50.006;36.180;2023-05-19T02:46:21;19.23;;;6.03;;
54665;SDS011;40566;50.006;36.180;2023-05-19T02:51:21;11.18;;;5.30;;
54665;SDS011;40566;50.006;36.180;2023-05-19T02:56:22;13.10;;;5.38;;
54665;SDS011;40566;50.006;36.180;2023-05-19T03:01:22;18.27;;;6.15;;
54665;SDS011;40566;50.006;36.180;2023-05-19T03:06:23;13.35;;;5.80;;
54665;SDS011;40566;50.006;36.180;2023-05-19T03:11:23;16.63;;;5.50;;
54665;SDS011;40566;50.006;36.180;2023-05-19T03:16:25;12.30;;;5.75;;
54665;SDS011;40566;50.006;36.180;2023-05-19T03:21:27;11.43;;;5.45;;
54665;SDS011;40566;50.006;36.180;2023-05-19T03:26:27;15.38;;;5.28;;
54665;SDS011;40566;50.006;36.180;2023-05-19T03:31:28;11.27;;;4.97;;
54665;SDS011;40566;50.006;36.180;2023-05-19T03:36:29;13.30;;;5.40;;
54665;SDS011;40566;50.006;36.180;2023-05-19T03:41:38;11.88;;;4.90;;
54665;SDS011;40566;50.006;36.180;2023-05-19T03:46:38;14.20;;;5.18;;
54665;SDS011;40566;50.006;36.180;2023-05-19T03:51:39;11.20;;;5.78;;
54665;SDS011;40566;50.006;36.180;2023-05-19T03:56:40;11.77;;;4.97;;
54665;SDS011;40566;50.006;36.180;2023-05-19T04:01:42;12.32;;;5.57;;
54665;SDS011;40566;50.006;36.180;2023-05-19T04:06:42;11.07;;;5.10;;
54665;SDS011;40566;50.006;36.180;2023-05-19T04:11:43;14.90;;;5.90;;
54665;SDS011;40566;50.006;36.180;2023-05-19T04:16:43;13.23;;;5.22;;
54665;SDS011;40566;50.006;36.180;2023-05-19T04:21:44;9.52;;;4.55;;
54665;SDS011;40566;50.006;36.180;2023-05-19T04:26:44;14.45;;;5.07;;
54665;SDS011;40566;50.006;36.180;2023-05-19T04:31:46;13.85;;;4.50;;
54665;SDS011;40566;50.006;36.180;2023-05-19T04:36:48;10.98;;;4.50;;
54665;SDS011;40566;50.006;36.180;2023-05-19T04:41:48;14.70;;;4.72;;
54665;SDS011;40566;50.006;36.180;2023-05-19T04:46:49;10.07;;;4.22;;
54665;SDS011;40566;50.006;36.180;2023-05-19T04:51:53;12.55;;;4.88;;
54665;SDS011;40566;50.006;36.180;2023-05-19T04:56:55;11.18;;;4.60;;
54665;SDS011;40566;50.006;36.180;2023-05-19T05:01:56;10.18;;;4.35;;
54665;SDS011;40566;50.006;36.180;2023-05-19T05:06:56;10.77;;;4.10;;
54665;SDS011;40566;50.006;36.180;2023-05-19T05:11:57;12.02;;;4.28;;
54665;SDS011;40566;50.006;36.180;2023-05-19T05:16:58;10.98;;;4.57;;
54665;SDS011;40566;50.006;36.180;2023-05-19T05:21:59;11.10;;;4.20;;
54665;SDS011;40566;50.006;36.180;2023-05-19T05:26:59;14.23;;;4.28;;
54665;SDS011;40566;50.006;36.180;2023-05-19T05:32:00;12.77;;;4.15;;
54665;SDS011;40566;50.006;36.180;2023-05-19T05:37:01;11.18;;;3.78;;
54665;SDS011;40566;50.006;36.180;2023-05-19T05:42:02;7.78;;;3.40;;
54665;SDS011;40566;50.006;36.180;2023-05-19T05:47:02;14.45;;;3.50;;
54665;SDS011;40566;50.006;36.180;2023-05-19T05:52:03;12.18;;;3.53;;
54665;SDS011;40566;50.006;36.180;2023-05-19T05:57:05;8.35;;;2.90;;
54665;SDS011;40566;50.006;36.180;2023-05-19T06:02:06;6.47;;;2.20;;
54665;SDS011;40566;50.006;36.180;2023-05-19T06:07:07;5.88;;;2.33;;
54665;SDS011;40566;50.006;36.180;2023-05-19T06:12:08;6.45;;;1.98;;
54665;SDS011;40566;50.006;36.180;2023-05-19T06:17:09;6.35;;;1.83;;
54665;SDS011;40566;50.006;36.180;2023-05-19T06:22:09;9.93;;;1.92;;
54665;SDS011;40566;50.006;36.180;2023-05-19T06:27:10;5.60;;;1.88;;
54665;SDS011;40566;50.006;36.180;2023-05-19T06:32:10;5.60;;;2.05;;
54665;SDS011;40566;50.006;36.180;2023-05-19T06:37:11;5.22;;;2.00;;
54665;SDS011;40566;50.006;36.180;2023-05-19T06:42:13;7.85;;;1.52;;
54665;SDS011;40566;50.006;36.180;2023-05-19T06:47:14;4.32;;;1.77;;
54665;SDS011;40566;50.006;36.180;2023-05-19T06:52:15;11.15;;;1.95;;
54665;SDS011;40566;50.006;36.180;2023-05-19T06:57:16;4.97;;;1.83;;
54665;SDS011;40566;50.006;36.180;2023-05-19T07:02:17;4.72;;;1.58;;
54665;SDS011;40566;50.006;36.180;2023-05-19T07:07:17;9.65;;;1.63;;
54665;SDS011;40566;50.006;36.180;2023-05-19T07:12:18;7.15;;;1.83;;
54665;SDS011;40566;50.006;36.180;2023-05-19T07:17:19;5.95;;;1.65;;
54665;SDS011;40566;50.006;36.180;2023-05-19T07:22:19;5.05;;;1.83;;
54665;SDS011;40566;50.006;36.180;2023-05-19T07:27:21;3.58;;;1.50;;
54665;SDS011;40566;50.006;36.180;2023-05-19T07:32:21;7.20;;;1.80;;
54665;SDS011;40566;50.006;36.180;2023-05-19T07:37:22;3.67;;;1.40;;
54665;SDS011;40566;50.006;36.180;2023-05-19T07:42:23;4.47;;;1.35;;
54665;SDS011;40566;50.006;36.180;2023-05-19T07:47:23;4.95;;;1.42;;
54665;SDS011;40566;50.006;36.180;2023-05-19T07:52:24;6.68;;;1.80;;
54665;SDS011;40566;50.006;36.180;2023-05-19T07:57:25;9.63;;;1.83;;
54665;SDS011;40566;50.006;36.180;2023-05-19T08:02:25;3.85;;;1.70;;
54665;SDS011;40566;50.006;36.180;2023-05-19T08:07:26;7.05;;;2.30;;
54665;SDS011;40566;50.006;36.180;2023-05-19T08:12:26;7.90;;;2.28;;
54665;SDS011;40566;50.006;36.180;2023-05-19T08:17:27;8.00;;;2.53;;
54665;SDS011;40566;50.006;36.180;2023-05-19T08:22:28;6.28;;;2.08;;
54665;SDS011;40566;50.006;36.180;2023-05-19T08:27:28;9.38;;;2.75;;
54665;SDS011;40566;50.006;36.180;2023-05-19T08:32:30;7.88;;;2.05;;
54665;SDS011;40566;50.006;36.180;2023-05-19T08:37:30;4.75;;;1.80;;
54665;SDS011;40566;50.006;36.180;2023-05-19T08:42:31;10.63;;;2.28;;
54665;SDS011;40566;50.006;36.180;2023-05-19T08:47:34;11.48;;;2.65;;
54665;SDS011;40566;50.006;36.180;2023-05-19T08:52:44;9.52;;;3.00;;
54665;SDS011;40566;50.006;36.180;2023-05-19T08:57:49;8.77;;;3.28;;
54665;SDS011;40566;50.006;36.180;2023-05-19T09:02:50;8.40;;;3.53;;
54665;SDS011;40566;50.006;36.180;2023-05-19T09:07:52;12.23;;;4.07;;
54665;SDS011;40566;50.006;36.180;2023-05-19T09:12:53;12.13;;;3.50;;
54665;SDS011;40566;50.006;36.180;2023-05-19T09:18:09;12.70;;;3.33;;
54665;SDS011;40566;50.006;36.180;2023-05-19T09:23:15;8.48;;;3.60;;
54665;SDS011;40566;50.006;36.180;2023-05-19T09:28:23;11.73;;;4.50;;
54665;SDS011;40566;50.006;36.180;2023-05-19T09:33:24;11.43;;;4.65;;
54665;SDS011;40566;50.006;36.180;2023-05-19T09:38:25;12.82;;;5.25;;
54665;SDS011;40566;50.006;36.180;2023-05-19T09:43:27;13.35;;;4.97;;
54665;SDS011;40566;50.006;36.180;2023-05-19T09:48:28;11.52;;;5.10;;
54665;SDS011;40566;50.006;36.180;2023-05-19T09:53:29;10.73;;;4.90;;
54665;SDS011;40566;50.006;36.180;2023-05-19T09:58:31;10.35;;;4.70;;
54665;SDS011;40566;50.006;36.180;2023-05-19T10:03:35;20.67;;;5.35;;
54665;SDS011;40566;50.006;36.180;2023-05-19T10:08:38;13.90;;;5.45;;
54665;SDS011;40566;50.006;36.180;2023-05-19T10:13:41;11.52;;;5.10;;
54665;SDS011;40566;50.006;36.180;2023-05-19T10:18:42;11.13;;;4.60;;
54665;SDS011;40566;50.006;36.180;2023-05-19T10:23:43;11.52;;;4.55;;
54665;SDS011;40566;50.006;36.180;2023-05-19T10:28:44;13.82;;;4.80;;
54665;SDS011;40566;50.006;36.180;2023-05-19T10:34:00;12.13;;;4.70;;
54665;SDS011;40566;50.006;36.180;2023-05-19T10:39:10;10.20;;;4.43;;
54665;SDS011;40566;50.006;36.180;2023-05-19T10:49:26;10.57;;;4.72;;
54665;SDS011;40566;50.006;36.180;2023-05-19T10:54:40;12.30;;;5.32;;
54665;SDS011;40566;50.006;36.180;2023-05-19T10:59:42;9.35;;;4.85;;
54665;SDS011;40566;50.006;36.180;2023-05-19T11:04:49;12.60;;;5.32;;
54665;SDS011;40566;50.006;36.180;2023-05-19T11:09:50;12.32;;;4.97;;
54665;SDS011;40566;50.006;36.180;2023-05-19T11:14:52;18.27;;;6.18;;
54665;SDS011;40566;50.006;36.180;2023-05-19T11:19:54;14.23;;;5.18;;
54665;SDS011;40566;50.006;36.180;2023-05-19T11:24:56;13.05;;;6.72;;
54665;SDS011;40566;50.006;36.180;2023-05-19T11:29:57;10.55;;;5.60;;
54665;SDS011;40566;50.006;36.180;2023-05-19T11:35:01;11.02;;;4.90;;
54665;SDS011;40566;50.006;36.180;2023-05-19T11:40:05;10.48;;;4.63;;
54665;SDS011;40566;50.006;36.180;2023-05-19T11:45:06;9.18;;;4.50;;
54665;SDS011;40566;50.006;36.180;2023-05-19T11:50:09;12.80;;;4.10;;
54665;SDS011;40566;50.006;36.180;2023-05-19T11:55:14;12.63;;;4.30;;
54665;SDS011;40566;50.006;36.180;2023-05-19T12:00:20;9.18;;;4.63;;
54665;SDS011;40566;50.006;36.180;2023-05-19T12:05:22;10.32;;;4.57;;
54665;SDS011;40566;50.006;36.180;2023-05-19T12:10:29;13.15;;;4.35;;
54665;SDS011;40566;50.006;36.180;2023-05-19T12:15:30;9.38;;;4.18;;
54665;SDS011;40566;50.006;36.180;2023-05-19T12:20:31;8.13;;;3.72;;
54665;SDS011;40566;50.006;36.180;2023-05-19T12:25:34;8.45;;;3.30;;
54665;SDS011;40566;50.006;36.180;2023-05-19T12:30:35;10.25;;;3.83;;
54665;SDS011;40566;50.006;36.180;2023-05-19T12:35:36;9.93;;;4.40;;
54665;SDS011;40566;50.006;36.180;2023-05-19T12:40:36;12.40;;;3.88;;
54665;SDS011;40566;50.006;36.180;2023-05-19T12:45:38;10.43;;;4.00;;
54665;SDS011;40566;50.006;36.180;2023-05-19T12:50:42;8.27;;;3.53;;
54665;SDS011;40566;50.006;36.180;2023-05-19T12:55:46;10.05;;;3.40;;
54665;SDS011;40566;50.006;36.180;2023-05-19T13:00:47;11.98;;;3.63;;
54665;SDS011;40566;50.006;36.180;2023-05-19T13:05:49;14.23;;;4.03;;
54665;SDS011;40566;50.006;36.180;2023-05-19T13:10:50;8.35;;;3.58;;
54665;SDS011;40566;50.006;36.180;2023-05-19T13:15:50;8.65;;;3.95;;
54665;SDS011;40566;50.006;36.180;2023-05-19T13:20:51;8.43;;;4.07;;
54665;SDS011;40566;50.006;36.180;2023-05-19T13:25:53;31.75;;;5.15;;
54665;SDS011;40566;50.006;36.180;2023-05-19T13:30:53;11.02;;;4.82;;
54665;SDS011;40566;50.006;36.180;2023-05-19T13:35:54;12.77;;;4.20;;
54665;SDS011;40566;50.006;36.180;2023-05-19T13:40:55;9.95;;;4.95;;
54665;SDS011;40566;50.006;36.180;2023-05-19T13:45:56;18.42;;;6.60;;
54665;SDS011;40566;50.006;36.180;2023-05-19T13:50:56;13.43;;;5.95;;
54665;SDS011;40566;50.006;36.180;2023-05-19T13:55:58;11.38;;;4.80;;
54665;SDS011;40566;50.006;36.180;2023-05-19T14:01:00;13.15;;;5.60;;
54665;SDS011;40566;50.006;36.180;2023-05-19T14:06:01;11.77;;;5.05;;
54665;SDS011;40566;50.006;36.180;2023-05-19T14:11:02;12.10;;;4.55;;
54665;SDS011;40566;50.006;36.180;2023-05-19T14:16:02;13.93;;;5.00;;
54665;SDS011;40566;50.006;36.180;2023-05-19T14:21:03;14.50;;;5.97;;
54665;SDS011;40566;50.006;36.180;2023-05-19T14:26:04;11.05;;;4.55;;
54665;SDS011;40566;50.006;36.180;2023-05-19T14:31:05;10.85;;;5.20;;
54665;SDS011;40566;50.006;36.180;2023-05-19T14:36:10;14.50;;;5.28;;
54665;SDS011;40566;50.006;36.180;2023-05-19T14:41:11;11.65;;;5.13;;
54665;SDS011;40566;50.006;36.180;2023-05-19T14:46:11;16.58;;;5.20;;
54665;SDS011;40566;50.006;36.180;2023-05-19T14:51:12;10.07;;;4.85;;
54665;SDS011;40566;50.006;36.180;2023-05-19T14:56:12;15.50;;;5.78;;
54665;SDS011;40566;50.006;36.180;2023-05-19T15:01:13;11.38;;;5.20;;
54665;SDS011;40566;50.006;36.180;2023-05-19T15:06:14;11.43;;;4.88;;
54665;SDS011;40566;50.006;36.180;2023-05-19T15:11:16;10.20;;;4.38;;
54665;SDS011;40566;50.006;36.180;2023-05-19T15:16:17;9.77;;;4.60;;
54665;SDS011;40566;50.006;36.180;2023-05-19T15:21:18;12.45;;;4.88;;
54665;SDS011;40566;50.006;36.180;2023-05-19T15:26:18;10.45;;;4.32;;
54665;SDS011;40566;50.006;36.180;2023-05-19T15:31:20;10.90;;;4.85;;
54665;SDS011;40566;50.006;36.180;2023-05-19T15:36:21;10.98;;;4.80;;
54665;SDS011;40566;50.006;36.180;2023-05-19T15:41:22;65.35;;;24.88;;
54665;SDS011;40566;50.006;36.180;2023-05-19T15:46:22;48.55;;;17.15;;
54665;SDS011;40566;50.006;36.180;2023-05-19T15:51:23;26.15;;;9.05;;
54665;SDS011;40566;50.006;36.180;2023-05-19T15:56:24;18.35;;;8.05;;
54665;SDS011;40566;50.006;36.180;2023-05-19T16:01:25;15.18;;;6.57;;
54665;SDS011;40566;50.006;36.180;2023-05-19T16:06:26;22.42;;;4.75;;
54665;SDS011;40566;50.006;36.180;2023-05-19T16:11:26;7.90;;;3.50;;
54665;SDS011;40566;50.006;36.180;2023-05-19T16:16:27;11.68;;;3.90;;
54665;SDS011;40566;50.006;36.180;2023-05-19T16:21:27;10.85;;;4.47;;
54665;SDS011;40566;50.006;36.180;2023-05-19T16:26:28;12.85;;;3.90;;
54665;SDS011;40566;50.006;36.180;2023-05-19T16:31:31;22.10;;;4.28;;
54665;SDS011;40566;50.006;36.180;2023-05-19T16:36:32;10.60;;;4.00;;
54665;SDS011;40566;50.006;36.180;2023-05-19T16:41:33;9.70;;;3.88;;
54665;SDS011;40566;50.006;36.180;2023-05-19T16:46:35;8.77;;;3.65;;
54665;SDS011;40566;50.006;36.180;2023-05-19T16:51:36;9.93;;;3.50;;
54665;SDS011;40566;50.006;36.180;2023-05-19T16:56:37;20.42;;;6.38;;
54665;SDS011;40566;50.006;36.180;2023-05-19T17:01:37;17.33;;;5.68;;
54665;SDS011;40566;50.006;36.180;2023-05-19T17:06:38;17.23;;;5.35;;
54665;SDS011;40566;50.006;36.180;2023-05-19T17:11:39;12.05;;;4.45;;
54665;SDS011;40566;50.006;36.180;2023-05-19T17:16:40;10.15;;;4.60;;
54665;SDS011;40566;50.006;36.180;2023-05-19T17:21:41;13.27;;;4.55;;
54665;SDS011;40566;50.006;36.180;2023-05-19T17:26:42;17.85;;;4.80;;
54665;SDS011;40566;50.006;36.180;2023-05-19T17:31:42;12.85;;;4.50;;
54665;SDS011;40566;50.006;36.180;2023-05-19T17:36:43;15.27;;;4.35;;
54665;SDS011;40566;50.006;36.180;2023-05-19T17:41:44;12.10;;;4.70;;
54665;SDS011;40566;50.006;36.180;2023-05-19T17:46:44;10.15;;;4.40;;
54665;SDS011;40566;50.006;36.180;2023-05-19T17:51:45;14.77;;;5.03;;
54665;SDS011;40566;50.006;36.180;2023-05-19T17:56:49;13.65;;;4.97;;
54665;SDS011;40566;50.006;36.180;2023-05-19T18:01:51;40.72;;;7.53;;
54665;SDS011;40566;50.006;36.180;2023-05-19T18:06:52;13.80;;;6.10;;
54665;SDS011;40566;50.006;36.180;2023-05-19T18:11:53;20.98;;;7.53;;
54665;SDS011;40566;50.006;36.180;2023-05-19T18:16:56;48.70;;;28.77;;
54665;SDS011;40566;50.006;36.180;2023-05-19T18:21:56;30.63;;;16.85;;
54665;SDS011;40566;50.006;36.180;2023-05-19T18:26:59;33.60;;;13.40;;
54665;SDS011;40566;50.006;36.180;2023-05-19T18:32:00;27.83;;;12.52;;
54665;SDS011;40566;50.006;36.180;2023-05-19T18:37:01;22.75;;;11.40;;
54665;SDS011;40566;50.006;36.180;2023-05-19T18:42:02;24.50;;;12.13;;
54665;SDS011;40566;50.006;36.180;2023-05-19T18:47:02;29.00;;;12.43;;
54665;SDS011;40566;50.006;36.180;2023-05-19T18:52:03;23.88;;;11.48;;
54665;SDS011;40566;50.006;36.180;2023-05-19T18:57:04;25.83;;;11.35;;
54665;SDS011;40566;50.006;36.180;2023-05-19T19:02:05;22.40;;;10.13;;
54665;SDS011;40566;50.006;36.180;2023-05-19T19:07:06;23.08;;;9.88;;
54665;SDS011;40566;50.006;36.180;2023-05-19T19:12:07;16.67;;;8.25;;
54665;SDS011;40566;50.006;36.180;2023-05-19T19:17:07;17.52;;;7.93;;
54665;SDS011;40566;50.006;36.180;2023-05-19T19:22:08;14.10;;;7.10;;
54665;SDS011;40566;50.006;36.180;2023-05-19T19:27:12;15.80;;;6.80;;
54665;SDS011;40566;50.006;36.180;2023-05-19T19:32:15;15.70;;;7.07;;
54665;SDS011;40566;50.006;36.180;2023-05-19T19:37:16;17.40;;;7.47;;
54665;SDS011;40566;50.006;36.180;2023-05-19T19:42:17;14.63;;;6.32;;
54665;SDS011;40566;50.006;36.180;2023-05-19T19:47:17;13.60;;;6.47;;
54665;SDS011;40566;50.006;36.180;2023-05-19T19:52:21;16.02;;;6.45;;
54665;SDS011;40566;50.006;36.180;2023-05-19T19:57:22;13.70;;;5.88;;
54665;SDS011;40566;50.006;36.180;2023-05-19T20:02:23;11.63;;;5.82;;
54665;SDS011;40566;50.006;36.180;2023-05-19T20:07:24;14.25;;;6.03;;
54665;SDS011;40566;50.006;36.180;2023-05-19T20:12:25;10.65;;;5.47;;
54665;SDS011;40566;50.006;36.180;2023-05-19T20:17:25;11.70;;;5.35;;
54665;SDS011;40566;50.006;36.180;2023-05-19T20:22:26;11.13;;;4.93;;
54665;SDS011;40566;50.006;36.180;2023-05-19T20:27:27;10.65;;;5.15;;
54665;SDS011;40566;50.006;36.180;2023-05-19T20:32:27;13.90;;;5.47;;
54665;SDS011;40566;50.006;36.180;2023-05-19T20:37:28;15.20;;;5.97;;
54665;SDS011;40566;50.006;36.180;2023-05-19T20:42:29;13.48;;;5.68;;
54665;SDS011;40566;50.006;36.180;2023-05-19T20:47:30;11.30;;;5.28;;
54665;SDS011;40566;50.006;36.180;2023-05-19T20:52:30;9.98;;;4.70;;
54665;SDS011;40566;50.006;36.180;2023-05-19T20:57:32;12.27;;;5.55;;
54665;SDS011;40566;50.006;36.180;2023-05-19T21:02:32;13.93;;;5.75;;
54665;SDS011;40566;50.006;36.180;2023-05-19T21:07:33;14.77;;;5.85;;
54665;SDS011;40566;50.006;36.180;2023-05-19T21:12:34;14.07;;;5.15;;
54665;SDS011;40566;50.006;36.180;2023-05-19T21:17:34;11.82;;;5.22;;
54665;SDS011;40566;50.006;36.180;2023-05-19T21:22:36;10.25;;;4.70;;
54665;SDS011;40566;50.006;36.180;2023-05-19T21:27:37;10.95;;;4.70;;
54665;SDS011;40566;50.006;36.180;2023-05-19T21:32:38;11.50;;;5.22;;
54665;SDS011;40566;50.006;36.180;2023-05-19T21:37:39;9.55;;;4.57;;
54665;SDS011;40566;50.006;36.180;2023-05-19T21:42:39;10.45;;;4.55;;
54665;SDS011;40566;50.006;36.180;2023-05-19T21:47:40;10.82;;;4.50;;
54665;SDS011;40566;50.006;36.180;2023-05-19T21:52:41;11.15;;;4.55;;
54665;SDS011;40566;50.006;36.180;2023-05-19T21:57:42;9.13;;;4.32;;
54665;SDS011;40566;50.006;36.180;2023-05-19T22:02:42;9.80;;;4.53;;
54665;SDS011;40566;50.006;36.180;2023-05-19T22:07:43;10.63;;;4.60;;
54665;SDS011;40566;50.006;36.180;2023-05-19T22:12:45;9.23;;;4.20;;
54665;SDS011;40566;50.006;36.180;2023-05-19T22:17:45;14.40;;;4.72;;
54665;SDS011;40566;50.006;36.180;2023-05-19T22:22:46;9.30;;;4.30;;
54665;SDS011;40566;50.006;36.180;2023-05-19T22:27:47;11.68;;;4.97;;
54665;SDS011;40566;50.006;36.180;2023-05-19T22:32:47;9.65;;;4.53;;
54665;SDS011;40566;50.006;36.180;2023-05-19T22:37:48;10.40;;;4.60;;
54665;SDS011;40566;50.006;36.180;2023-05-19T22:42:48;11.57;;;4.32;;
54665;SDS011;40566;50.006;36.180;2023-05-19T22:47:49;12.25;;;4.40;;
54665;SDS011;40566;50.006;36.180;2023-05-19T22:52:50;8.70;;;4.40;;
54665;SDS011;40566;50.006;36.180;2023-05-19T22:57:50;10.48;;;4.63;;
54665;SDS011;40566;50.006;36.180;2023-05-19T23:02:51;13.25;;;4.75;;
54665;SDS011;40566;50.006;36.180;2023-05-19T23:07:51;14.18;;;4.82;;
54665;SDS011;40566;50.006;36.180;2023-05-19T23:12:52;13.85;;;4.90;;
54665;SDS011;40566;50.006;36.180;2023-05-19T23:17:53;12.40;;;5.18;;
54665;SDS011;40566;50.006;36.180;2023-05-19T23:22:53;11.10;;;4.53;;
54665;SDS011;40566;50.006;36.180;2023-05-19T23:27:54;13.07;;;4.90;;
54665;SDS011;40566;50.006;36.180;2023-05-19T23:32:55;12.73;;;4.68;;
54665;SDS011;40566;50.006;36.180;2023-05-19T23:37:55;12.70;;;4.80;;
54665;SDS011;40566;50.006;36.180;2023-05-19T23:42:56;12.65;;;4.70;;
54665;SDS011;40566;50.006;36.180;2023-05-19T23:47:56;12.15;;;5.05;;
54665;SDS011;40566;50.006;36.180;2023-05-19T23:52:57;14.02;;;5.15;;
54665;SDS011;40566;50.006;36.180;2023-05-19T23:57:58;11.70;;;4.88;;
